sensor_id;sensor_type;location;lat;lon;timestamp;P1;durP1;ratioP1;P2;durP2;ratioP2
35897;SDS011;21997;47.118;15.346;2023-02-04T00:02:18;2.93;;;2.10;;
35897;SDS011;21997;47.118;15.346;2023-02-04T00:04:44;3.47;;;2.10;;
35897;SDS011;21997;47.118;15.346;2023-02-04T00:07:09;3.43;;;1.97;;
35897;SDS011;21997;47.118;15.346;2023-02-04T00:09:34;2.87;;;1.70;;
35897;SDS011;21997;47.118;15.346;2023-02-04T00:12:00;3.17;;;1.57;;
35897;SDS011;21997;47.118;15.346;2023-02-04T00:14:25;4.97;;;2.83;;
35897;SDS011;21997;47.118;15.346;2023-02-04T00:16:51;5.40;;;3.80;;
35897;SDS011;21997;47.118;15.346;2023-02-04T00:19:16;4.17;;;2.53;;
35897;SDS011;21997;47.118;15.346;2023-02-04T00:21:42;2.40;;;1.60;;
35897;SDS011;21997;47.118;15.346;2023-02-04T00:24:07;1.77;;;1.37;;
35897;SDS011;21997;47.118;15.346;2023-02-04T00:26:34;3.47;;;1.77;;
35897;SDS011;21997;47.118;15.346;2023-02-04T00:28:59;4.07;;;1.53;;
35897;SDS011;21997;47.118;15.346;2023-02-04T00:31:24;0.60;;;0.60;;
35897;SDS011;21997;47.118;15.346;2023-02-04T00:33:50;0.50;;;0.50;;
35897;SDS011;21997;47.118;15.346;2023-02-04T00:36:15;3.77;;;0.50;;
35897;SDS011;21997;47.118;15.346;2023-02-04T00:38:40;1.10;;;0.30;;
35897;SDS011;21997;47.118;15.346;2023-02-04T00:41:06;0.53;;;0.50;;
35897;SDS011;21997;47.118;15.346;2023-02-04T00:43:31;0.33;;;0.30;;
35897;SDS011;21997;47.118;15.346;2023-02-04T00:45:57;1.23;;;0.30;;
35897;SDS011;21997;47.118;15.346;2023-02-04T00:48:22;0.60;;;0.40;;
35897;SDS011;21997;47.118;15.346;2023-02-04T00:50:47;1.00;;;0.60;;
35897;SDS011;21997;47.118;15.346;2023-02-04T00:53:13;2.40;;;0.40;;
35897;SDS011;21997;47.118;15.346;2023-02-04T00:55:38;0.63;;;0.30;;
35897;SDS011;21997;47.118;15.346;2023-02-04T00:58:04;0.20;;;0.20;;
35897;SDS011;21997;47.118;15.346;2023-02-04T01:00:29;0.43;;;0.40;;
35897;SDS011;21997;47.118;15.346;2023-02-04T01:02:54;0.57;;;0.30;;
35897;SDS011;21997;47.118;15.346;2023-02-04T01:05:20;0.37;;;0.37;;
35897;SDS011;21997;47.118;15.346;2023-02-04T01:07:45;0.60;;;0.40;;
35897;SDS011;21997;47.118;15.346;2023-02-04T01:10:12;0.40;;;0.33;;
35897;SDS011;21997;47.118;15.346;2023-02-04T01:12:37;0.43;;;0.30;;
35897;SDS011;21997;47.118;15.346;2023-02-04T01:15:03;0.93;;;0.50;;
35897;SDS011;21997;47.118;15.346;2023-02-04T01:17:28;0.30;;;0.30;;
35897;SDS011;21997;47.118;15.346;2023-02-04T01:19:54;0.30;;;0.30;;
35897;SDS011;21997;47.118;15.346;2023-02-04T01:22:19;0.47;;;0.30;;
35897;SDS011;21997;47.118;15.346;2023-02-04T01:24:45;0.30;;;0.30;;
35897;SDS011;21997;47.118;15.346;2023-02-04T01:27:10;0.43;;;0.30;;
35897;SDS011;21997;47.118;15.346;2023-02-04T01:29:35;0.20;;;0.20;;
35897;SDS011;21997;47.118;15.346;2023-02-04T01:32:01;0.30;;;0.30;;
35897;SDS011;21997;47.118;15.346;2023-02-04T01:34:26;0.30;;;0.20;;
35897;SDS011;21997;47.118;15.346;2023-02-04T01:36:52;0.60;;;0.40;;
35897;SDS011;21997;47.118;15.346;2023-02-04T01:39:18;0.43;;;0.43;;
35897;SDS011;21997;47.118;15.346;2023-02-04T01:41:43;0.23;;;0.23;;
35897;SDS011;21997;47.118;15.346;2023-02-04T01:44:08;0.83;;;0.23;;
35897;SDS011;21997;47.118;15.346;2023-02-04T01:46:34;0.47;;;0.30;;
35897;SDS011;21997;47.118;15.346;2023-02-04T01:49:01;0.30;;;0.20;;
35897;SDS011;21997;47.118;15.346;2023-02-04T01:51:28;1.63;;;0.20;;
35897;SDS011;21997;47.118;15.346;2023-02-04T01:53:55;1.10;;;0.47;;
35897;SDS011;21997;47.118;15.346;2023-02-04T01:56:22;0.43;;;0.20;;
35897;SDS011;21997;47.118;15.346;2023-02-04T01:58:52;0.20;;;0.20;;
35897;SDS011;21997;47.118;15.346;2023-02-04T02:04:12;0.20;;;0.10;;
35897;SDS011;21997;47.118;15.346;2023-02-04T02:06:52;0.60;;;0.40;;
35897;SDS011;21997;47.118;15.346;2023-02-04T02:09:21;0.13;;;0.10;;
35897;SDS011;21997;47.118;15.346;2023-02-04T02:11:46;0.53;;;0.30;;
35897;SDS011;21997;47.118;15.346;2023-02-04T02:14:12;1.03;;;0.13;;
35897;SDS011;21997;47.118;15.346;2023-02-04T02:16:37;0.20;;;0.20;;
35897;SDS011;21997;47.118;15.346;2023-02-04T02:19:03;0.20;;;0.20;;
35897;SDS011;21997;47.118;15.346;2023-02-04T02:21:48;0.30;;;0.30;;
35897;SDS011;21997;47.118;15.346;2023-02-04T02:24:26;0.20;;;0.20;;
35897;SDS011;21997;47.118;15.346;2023-02-04T02:26:53;0.50;;;0.30;;
35897;SDS011;21997;47.118;15.346;2023-02-04T02:29:19;0.57;;;0.20;;
35897;SDS011;21997;47.118;15.346;2023-02-04T02:31:44;0.20;;;0.20;;
35897;SDS011;21997;47.118;15.346;2023-02-04T02:34:10;0.33;;;0.30;;
35897;SDS011;21997;47.118;15.346;2023-02-04T02:36:35;0.70;;;0.37;;
35897;SDS011;21997;47.118;15.346;2023-02-04T02:39:01;0.60;;;0.20;;
35897;SDS011;21997;47.118;15.346;2023-02-04T02:41:27;1.30;;;0.30;;
35897;SDS011;21997;47.118;15.346;2023-02-04T02:43:52;0.97;;;0.50;;
35897;SDS011;21997;47.118;15.346;2023-02-04T02:46:17;0.50;;;0.20;;
35897;SDS011;21997;47.118;15.346;2023-02-04T02:48:43;0.30;;;0.30;;
35897;SDS011;21997;47.118;15.346;2023-02-04T02:51:08;0.40;;;0.40;;
35897;SDS011;21997;47.118;15.346;2023-02-04T02:53:34;0.20;;;0.20;;
35897;SDS011;21997;47.118;15.346;2023-02-04T02:55:59;0.37;;;0.20;;
35897;SDS011;21997;47.118;15.346;2023-02-04T02:58:29;0.20;;;0.20;;
35897;SDS011;21997;47.118;15.346;2023-02-04T03:01:00;0.70;;;0.30;;
35897;SDS011;21997;47.118;15.346;2023-02-04T03:03:28;0.97;;;0.60;;
35897;SDS011;21997;47.118;15.346;2023-02-04T03:06:09;1.70;;;0.50;;
35897;SDS011;21997;47.118;15.346;2023-02-04T03:08:45;0.50;;;0.50;;
35897;SDS011;21997;47.118;15.346;2023-02-04T03:11:12;0.60;;;0.50;;
35897;SDS011;21997;47.118;15.346;2023-02-04T03:13:37;0.30;;;0.30;;
35897;SDS011;21997;47.118;15.346;2023-02-04T03:16:03;0.30;;;0.20;;
35897;SDS011;21997;47.118;15.346;2023-02-04T03:18:30;0.20;;;0.20;;
35897;SDS011;21997;47.118;15.346;2023-02-04T03:20:55;0.70;;;0.40;;
35897;SDS011;21997;47.118;15.346;2023-02-04T03:23:23;0.33;;;0.33;;
35897;SDS011;21997;47.118;15.346;2023-02-04T03:25:48;0.67;;;0.40;;
35897;SDS011;21997;47.118;15.346;2023-02-04T03:28:14;1.03;;;0.50;;
35897;SDS011;21997;47.118;15.346;2023-02-04T03:30:39;0.33;;;0.33;;
35897;SDS011;21997;47.118;15.346;2023-02-04T03:33:05;2.03;;;0.20;;
35897;SDS011;21997;47.118;15.346;2023-02-04T03:35:30;0.30;;;0.30;;
35897;SDS011;21997;47.118;15.346;2023-02-04T03:37:57;0.30;;;0.30;;
35897;SDS011;21997;47.118;15.346;2023-02-04T03:40:22;0.20;;;0.20;;
35897;SDS011;21997;47.118;15.346;2023-02-04T03:42:48;0.30;;;0.20;;
35897;SDS011;21997;47.118;15.346;2023-02-04T03:45:13;0.30;;;0.30;;
35897;SDS011;21997;47.118;15.346;2023-02-04T03:47:39;3.40;;;0.30;;
35897;SDS011;21997;47.118;15.346;2023-02-04T03:50:04;0.50;;;0.40;;
35897;SDS011;21997;47.118;15.346;2023-02-04T03:52:30;0.10;;;0.10;;
35897;SDS011;21997;47.118;15.346;2023-02-04T03:54:55;0.30;;;0.30;;
35897;SDS011;21997;47.118;15.346;2023-02-04T03:57:20;0.70;;;0.30;;
35897;SDS011;21997;47.118;15.346;2023-02-04T03:59:46;0.30;;;0.23;;
35897;SDS011;21997;47.118;15.346;2023-02-04T04:02:11;0.60;;;0.30;;
35897;SDS011;21997;47.118;15.346;2023-02-04T04:04:36;0.87;;;0.30;;
35897;SDS011;21997;47.118;15.346;2023-02-04T04:07:02;1.63;;;0.30;;
35897;SDS011;21997;47.118;15.346;2023-02-04T04:09:27;0.53;;;0.30;;
35897;SDS011;21997;47.118;15.346;2023-02-04T04:11:53;1.07;;;0.70;;
35897;SDS011;21997;47.118;15.346;2023-02-04T04:14:19;0.40;;;0.40;;
35897;SDS011;21997;47.118;15.346;2023-02-04T04:16:44;0.30;;;0.30;;
35897;SDS011;21997;47.118;15.346;2023-02-04T04:19:11;0.30;;;0.20;;
35897;SDS011;21997;47.118;15.346;2023-02-04T04:21:36;0.30;;;0.30;;
35897;SDS011;21997;47.118;15.346;2023-02-04T04:24:02;0.50;;;0.23;;
35897;SDS011;21997;47.118;15.346;2023-02-04T04:26:27;0.83;;;0.33;;
35897;SDS011;21997;47.118;15.346;2023-02-04T04:28:53;0.50;;;0.30;;
35897;SDS011;21997;47.118;15.346;2023-02-04T04:31:18;0.43;;;0.30;;
35897;SDS011;21997;47.118;15.346;2023-02-04T04:33:43;0.47;;;0.20;;
35897;SDS011;21997;47.118;15.346;2023-02-04T04:36:09;4.53;;;2.43;;
35897;SDS011;21997;47.118;15.346;2023-02-04T04:38:34;2.03;;;1.43;;
35897;SDS011;21997;47.118;15.346;2023-02-04T04:41:00;1.27;;;0.97;;
35897;SDS011;21997;47.118;15.346;2023-02-04T04:43:25;0.90;;;0.30;;
35897;SDS011;21997;47.118;15.346;2023-02-04T04:45:51;0.60;;;0.30;;
35897;SDS011;21997;47.118;15.346;2023-02-04T04:48:16;0.20;;;0.20;;
35897;SDS011;21997;47.118;15.346;2023-02-04T04:50:42;0.63;;;0.40;;
35897;SDS011;21997;47.118;15.346;2023-02-04T04:53:07;0.40;;;0.40;;
35897;SDS011;21997;47.118;15.346;2023-02-04T04:55:36;0.20;;;0.20;;
35897;SDS011;21997;47.118;15.346;2023-02-04T04:58:02;0.20;;;0.20;;
35897;SDS011;21997;47.118;15.346;2023-02-04T05:00:28;1.27;;;0.33;;
35897;SDS011;21997;47.118;15.346;2023-02-04T05:02:53;0.33;;;0.33;;
35897;SDS011;21997;47.118;15.346;2023-02-04T05:05:19;0.30;;;0.20;;
35897;SDS011;21997;47.118;15.346;2023-02-04T05:07:44;0.30;;;0.30;;
35897;SDS011;21997;47.118;15.346;2023-02-04T05:10:10;0.43;;;0.23;;
35897;SDS011;21997;47.118;15.346;2023-02-04T05:12:35;0.40;;;0.30;;
35897;SDS011;21997;47.118;15.346;2023-02-04T05:15:01;2.40;;;0.30;;
35897;SDS011;21997;47.118;15.346;2023-02-04T05:17:26;0.93;;;0.40;;
35897;SDS011;21997;47.118;15.346;2023-02-04T05:19:51;0.20;;;0.20;;
35897;SDS011;21997;47.118;15.346;2023-02-04T05:22:17;0.20;;;0.20;;
35897;SDS011;21997;47.118;15.346;2023-02-04T05:24:42;0.20;;;0.20;;
35897;SDS011;21997;47.118;15.346;2023-02-04T05:27:07;0.30;;;0.30;;
35897;SDS011;21997;47.118;15.346;2023-02-04T05:29:33;0.30;;;0.30;;
35897;SDS011;21997;47.118;15.346;2023-02-04T05:31:58;0.33;;;0.30;;
35897;SDS011;21997;47.118;15.346;2023-02-04T05:34:24;0.50;;;0.40;;
35897;SDS011;21997;47.118;15.346;2023-02-04T05:36:49;1.00;;;0.50;;
35897;SDS011;21997;47.118;15.346;2023-02-04T05:39:15;0.47;;;0.17;;
35897;SDS011;21997;47.118;15.346;2023-02-04T05:41:41;1.87;;;0.80;;
35897;SDS011;21997;47.118;15.346;2023-02-04T05:44:06;2.27;;;1.60;;
35897;SDS011;21997;47.118;15.346;2023-02-04T05:46:31;2.33;;;1.60;;
35897;SDS011;21997;47.118;15.346;2023-02-04T05:48:57;0.83;;;0.60;;
35897;SDS011;21997;47.118;15.346;2023-02-04T05:51:22;0.90;;;0.60;;
35897;SDS011;21997;47.118;15.346;2023-02-04T05:53:48;1.67;;;0.60;;
35897;SDS011;21997;47.118;15.346;2023-02-04T05:56:13;1.33;;;0.70;;
35897;SDS011;21997;47.118;15.346;2023-02-04T05:58:39;0.57;;;0.30;;
35897;SDS011;21997;47.118;15.346;2023-02-04T06:01:04;0.20;;;0.20;;
35897;SDS011;21997;47.118;15.346;2023-02-04T06:03:30;0.27;;;0.27;;
35897;SDS011;21997;47.118;15.346;2023-02-04T06:05:55;0.30;;;0.30;;
35897;SDS011;21997;47.118;15.346;2023-02-04T06:08:21;0.20;;;0.20;;
35897;SDS011;21997;47.118;15.346;2023-02-04T06:10:46;1.90;;;0.50;;
35897;SDS011;21997;47.118;15.346;2023-02-04T06:13:12;0.30;;;0.23;;
35897;SDS011;21997;47.118;15.346;2023-02-04T06:15:37;0.40;;;0.20;;
35897;SDS011;21997;47.118;15.346;2023-02-04T06:18:02;0.30;;;0.30;;
35897;SDS011;21997;47.118;15.346;2023-02-04T06:20:29;2.00;;;0.20;;
35897;SDS011;21997;47.118;15.346;2023-02-04T06:22:54;1.60;;;1.37;;
35897;SDS011;21997;47.118;15.346;2023-02-04T06:25:20;0.83;;;0.70;;
35897;SDS011;21997;47.118;15.346;2023-02-04T06:27:46;1.27;;;1.10;;
35897;SDS011;21997;47.118;15.346;2023-02-04T06:30:11;0.77;;;0.63;;
35897;SDS011;21997;47.118;15.346;2023-02-04T06:32:37;1.80;;;1.70;;
35897;SDS011;21997;47.118;15.346;2023-02-04T06:35:03;0.40;;;0.40;;
35897;SDS011;21997;47.118;15.346;2023-02-04T06:37:28;1.10;;;0.40;;
35897;SDS011;21997;47.118;15.346;2023-02-04T06:39:54;0.20;;;0.20;;
35897;SDS011;21997;47.118;15.346;2023-02-04T06:42:21;2.50;;;1.47;;
35897;SDS011;21997;47.118;15.346;2023-02-04T06:44:47;1.50;;;0.77;;
35897;SDS011;21997;47.118;15.346;2023-02-04T06:47:12;0.83;;;0.20;;
35897;SDS011;21997;47.118;15.346;2023-02-04T06:49:38;0.30;;;0.27;;
35897;SDS011;21997;47.118;15.346;2023-02-04T06:52:03;0.90;;;0.60;;
35897;SDS011;21997;47.118;15.346;2023-02-04T06:54:29;0.70;;;0.70;;
35897;SDS011;21997;47.118;15.346;2023-02-04T06:56:55;1.30;;;1.10;;
35897;SDS011;21997;47.118;15.346;2023-02-04T06:59:21;0.93;;;0.93;;
35897;SDS011;21997;47.118;15.346;2023-02-04T07:01:47;1.20;;;0.77;;
35897;SDS011;21997;47.118;15.346;2023-02-04T07:04:12;0.60;;;0.50;;
35897;SDS011;21997;47.118;15.346;2023-02-04T07:06:38;1.80;;;0.60;;
35897;SDS011;21997;47.118;15.346;2023-02-04T07:09:03;2.63;;;0.87;;
35897;SDS011;21997;47.118;15.346;2023-02-04T07:11:29;2.63;;;0.80;;
35897;SDS011;21997;47.118;15.346;2023-02-04T07:13:54;1.43;;;0.90;;
35897;SDS011;21997;47.118;15.346;2023-02-04T07:16:19;0.80;;;0.73;;
35897;SDS011;21997;47.118;15.346;2023-02-04T07:18:45;0.70;;;0.50;;
35897;SDS011;21997;47.118;15.346;2023-02-04T07:21:10;2.57;;;1.10;;
35897;SDS011;21997;47.118;15.346;2023-02-04T07:23:36;1.40;;;1.17;;
35897;SDS011;21997;47.118;15.346;2023-02-04T07:26:01;1.47;;;0.87;;
35897;SDS011;21997;47.118;15.346;2023-02-04T07:28:26;3.10;;;0.83;;
35897;SDS011;21997;47.118;15.346;2023-02-04T07:30:52;1.60;;;0.63;;
35897;SDS011;21997;47.118;15.346;2023-02-04T07:33:17;0.20;;;0.20;;
35897;SDS011;21997;47.118;15.346;2023-02-04T07:35:43;0.50;;;0.50;;
35897;SDS011;21997;47.118;15.346;2023-02-04T07:38:08;0.83;;;0.60;;
35897;SDS011;21997;47.118;15.346;2023-02-04T07:40:36;0.73;;;0.67;;
35897;SDS011;21997;47.118;15.346;2023-02-04T07:43:01;1.13;;;0.50;;
35897;SDS011;21997;47.118;15.346;2023-02-04T07:45:26;3.50;;;1.50;;
35897;SDS011;21997;47.118;15.346;2023-02-04T07:47:52;2.40;;;1.90;;
35897;SDS011;21997;47.118;15.346;2023-02-04T07:50:17;1.10;;;0.90;;
35897;SDS011;21997;47.118;15.346;2023-02-04T07:52:43;0.33;;;0.33;;
35897;SDS011;21997;47.118;15.346;2023-02-04T07:55:08;0.23;;;0.20;;
35897;SDS011;21997;47.118;15.346;2023-02-04T07:57:34;0.93;;;0.60;;
35897;SDS011;21997;47.118;15.346;2023-02-04T07:59:59;1.17;;;0.53;;
35897;SDS011;21997;47.118;15.346;2023-02-04T08:02:25;3.27;;;1.40;;
35897;SDS011;21997;47.118;15.346;2023-02-04T08:04:51;2.10;;;1.00;;
35897;SDS011;21997;47.118;15.346;2023-02-04T08:07:16;0.43;;;0.27;;
35897;SDS011;21997;47.118;15.346;2023-02-04T08:09:41;0.60;;;0.20;;
35897;SDS011;21997;47.118;15.346;2023-02-04T08:12:07;0.97;;;0.57;;
35897;SDS011;21997;47.118;15.346;2023-02-04T08:14:32;0.97;;;0.47;;
35897;SDS011;21997;47.118;15.346;2023-02-04T08:16:58;0.20;;;0.20;;
35897;SDS011;21997;47.118;15.346;2023-02-04T08:19:23;2.63;;;1.57;;
35897;SDS011;21997;47.118;15.346;2023-02-04T08:21:48;1.53;;;1.03;;
35897;SDS011;21997;47.118;15.346;2023-02-04T08:24:14;3.03;;;1.60;;
35897;SDS011;21997;47.118;15.346;2023-02-04T08:26:41;1.37;;;0.93;;
35897;SDS011;21997;47.118;15.346;2023-02-04T08:29:07;0.37;;;0.20;;
35897;SDS011;21997;47.118;15.346;2023-02-04T08:31:32;0.60;;;0.43;;
35897;SDS011;21997;47.118;15.346;2023-02-04T08:33:58;0.67;;;0.60;;
35897;SDS011;21997;47.118;15.346;2023-02-04T08:36:23;0.37;;;0.37;;
35897;SDS011;21997;47.118;15.346;2023-02-04T08:38:49;1.03;;;0.30;;
35897;SDS011;21997;47.118;15.346;2023-02-04T08:41:14;0.17;;;0.13;;
35897;SDS011;21997;47.118;15.346;2023-02-04T08:43:40;0.00;;;0.00;;
35897;SDS011;21997;47.118;15.346;2023-02-04T08:46:05;0.50;;;0.17;;
35897;SDS011;21997;47.118;15.346;2023-02-04T08:48:31;0.90;;;0.30;;
35897;SDS011;21997;47.118;15.346;2023-02-04T08:50:56;0.20;;;0.10;;
35897;SDS011;21997;47.118;15.346;2023-02-04T08:53:21;0.30;;;0.10;;
35897;SDS011;21997;47.118;15.346;2023-02-04T08:55:47;0.80;;;0.30;;
35897;SDS011;21997;47.118;15.346;2023-02-04T08:58:15;0.20;;;0.10;;
35897;SDS011;21997;47.118;15.346;2023-02-04T09:00:41;0.53;;;0.53;;
35897;SDS011;21997;47.118;15.346;2023-02-04T09:03:07;0.30;;;0.20;;
35897;SDS011;21997;47.118;15.346;2023-02-04T09:05:32;1.17;;;0.30;;
35897;SDS011;21997;47.118;15.346;2023-02-04T09:07:57;0.50;;;0.20;;
35897;SDS011;21997;47.118;15.346;2023-02-04T09:10:23;0.47;;;0.20;;
35897;SDS011;21997;47.118;15.346;2023-02-04T09:12:48;0.93;;;0.10;;
35897;SDS011;21997;47.118;15.346;2023-02-04T09:15:14;0.60;;;0.20;;
35897;SDS011;21997;47.118;15.346;2023-02-04T09:17:39;0.17;;;0.10;;
35897;SDS011;21997;47.118;15.346;2023-02-04T09:20:08;0.13;;;0.10;;
35897;SDS011;21997;47.118;15.346;2023-02-04T09:22:34;0.60;;;0.17;;
35897;SDS011;21997;47.118;15.346;2023-02-04T09:25:01;0.33;;;0.17;;
35897;SDS011;21997;47.118;15.346;2023-02-04T09:27:27;0.20;;;0.10;;
35897;SDS011;21997;47.118;15.346;2023-02-04T09:29:52;0.33;;;0.10;;
35897;SDS011;21997;47.118;15.346;2023-02-04T09:32:18;0.87;;;0.40;;
35897;SDS011;21997;47.118;15.346;2023-02-04T09:34:43;0.73;;;0.30;;
35897;SDS011;21997;47.118;15.346;2023-02-04T09:37:08;0.50;;;0.10;;
35897;SDS011;21997;47.118;15.346;2023-02-04T09:39:34;0.37;;;0.30;;
35897;SDS011;21997;47.118;15.346;2023-02-04T09:41:59;0.10;;;0.10;;
35897;SDS011;21997;47.118;15.346;2023-02-04T09:44:25;0.70;;;0.30;;
35897;SDS011;21997;47.118;15.346;2023-02-04T09:46:52;0.10;;;0.10;;
35897;SDS011;21997;47.118;15.346;2023-02-04T09:49:19;0.50;;;0.30;;
35897;SDS011;21997;47.118;15.346;2023-02-04T09:51:45;0.00;;;0.00;;
35897;SDS011;21997;47.118;15.346;2023-02-04T09:54:13;0.40;;;0.40;;
35897;SDS011;21997;47.118;15.346;2023-02-04T09:56:40;0.57;;;0.20;;
35897;SDS011;21997;47.118;15.346;2023-02-04T09:59:10;0.10;;;0.10;;
35897;SDS011;21997;47.118;15.346;2023-02-04T10:01:39;0.00;;;0.00;;
35897;SDS011;21997;47.118;15.346;2023-02-04T10:04:05;0.53;;;0.27;;
35897;SDS011;21997;47.118;15.346;2023-02-04T10:06:34;0.23;;;0.03;;
35897;SDS011;21997;47.118;15.346;2023-02-04T10:09:01;0.30;;;0.30;;
35897;SDS011;21997;47.118;15.346;2023-02-04T10:11:27;0.30;;;0.23;;
35897;SDS011;21997;47.118;15.346;2023-02-04T10:13:56;0.30;;;0.23;;
35897;SDS011;21997;47.118;15.346;2023-02-04T10:16:23;0.30;;;0.20;;
35897;SDS011;21997;47.118;15.346;2023-02-04T10:18:58;0.20;;;0.20;;
35897;SDS011;21997;47.118;15.346;2023-02-04T10:21:28;0.10;;;0.10;;
35897;SDS011;21997;47.118;15.346;2023-02-04T10:23:56;0.73;;;0.20;;
35897;SDS011;21997;47.118;15.346;2023-02-04T10:26:28;0.40;;;0.20;;
35897;SDS011;21997;47.118;15.346;2023-02-04T10:29:04;0.20;;;0.20;;
35897;SDS011;21997;47.118;15.346;2023-02-04T10:31:35;0.60;;;0.50;;
35897;SDS011;21997;47.118;15.346;2023-02-04T10:34:06;1.80;;;0.23;;
35897;SDS011;21997;47.118;15.346;2023-02-04T10:36:35;0.20;;;0.20;;
35897;SDS011;21997;47.118;15.346;2023-02-04T10:39:01;0.40;;;0.33;;
35897;SDS011;21997;47.118;15.346;2023-02-04T10:41:28;1.80;;;0.80;;
35897;SDS011;21997;47.118;15.346;2023-02-04T10:43:54;0.97;;;0.73;;
35897;SDS011;21997;47.118;15.346;2023-02-04T10:46:28;0.60;;;0.60;;
35897;SDS011;21997;47.118;15.346;2023-02-04T10:48:55;0.50;;;0.43;;
35897;SDS011;21997;47.118;15.346;2023-02-04T10:51:21;0.40;;;0.30;;
35897;SDS011;21997;47.118;15.346;2023-02-04T10:53:46;0.27;;;0.20;;
35897;SDS011;21997;47.118;15.346;2023-02-04T10:56:30;0.30;;;0.30;;
35897;SDS011;21997;47.118;15.346;2023-02-04T10:58:55;1.27;;;0.40;;
35897;SDS011;21997;47.118;15.346;2023-02-04T11:01:21;0.40;;;0.40;;
35897;SDS011;21997;47.118;15.346;2023-02-04T11:03:46;0.20;;;0.20;;
35897;SDS011;21997;47.118;15.346;2023-02-04T11:06:13;1.90;;;0.40;;
35897;SDS011;21997;47.118;15.346;2023-02-04T11:08:42;0.30;;;0.20;;
35897;SDS011;21997;47.118;15.346;2023-02-04T11:11:08;0.27;;;0.27;;
35897;SDS011;21997;47.118;15.346;2023-02-04T11:16:33;0.30;;;0.20;;
35897;SDS011;21997;47.118;15.346;2023-02-04T11:19:00;1.23;;;0.47;;
35897;SDS011;21997;47.118;15.346;2023-02-04T11:21:39;0.40;;;0.20;;
35897;SDS011;21997;47.118;15.346;2023-02-04T11:26:41;0.83;;;0.53;;
35897;SDS011;21997;47.118;15.346;2023-02-04T11:29:21;2.77;;;0.30;;
35897;SDS011;21997;47.118;15.346;2023-02-04T11:39:24;5.10;;;0.30;;
35897;SDS011;21997;47.118;15.346;2023-02-04T11:41:52;2.43;;;1.70;;
35897;SDS011;21997;47.118;15.346;2023-02-04T11:44:18;0.60;;;0.30;;
35897;SDS011;21997;47.118;15.346;2023-02-04T11:46:48;0.20;;;0.20;;
35897;SDS011;21997;47.118;15.346;2023-02-04T11:49:18;0.27;;;0.10;;
35897;SDS011;21997;47.118;15.346;2023-02-04T11:51:44;0.20;;;0.20;;
35897;SDS011;21997;47.118;15.346;2023-02-04T11:54:11;0.67;;;0.30;;
35897;SDS011;21997;47.118;15.346;2023-02-04T11:56:41;0.90;;;0.60;;
35897;SDS011;21997;47.118;15.346;2023-02-04T11:59:08;0.40;;;0.40;;
35897;SDS011;21997;47.118;15.346;2023-02-04T12:01:34;0.50;;;0.40;;
35897;SDS011;21997;47.118;15.346;2023-02-04T12:04:00;0.60;;;0.40;;
35897;SDS011;21997;47.118;15.346;2023-02-04T12:06:29;1.43;;;1.33;;
35897;SDS011;21997;47.118;15.346;2023-02-04T12:09:06;0.73;;;0.40;;
35897;SDS011;21997;47.118;15.346;2023-02-04T12:11:58;0.30;;;0.30;;
35897;SDS011;21997;47.118;15.346;2023-02-04T12:14:35;0.50;;;0.37;;
35897;SDS011;21997;47.118;15.346;2023-02-04T12:17:13;1.60;;;0.90;;
35897;SDS011;21997;47.118;15.346;2023-02-04T12:19:40;0.40;;;0.37;;
35897;SDS011;21997;47.118;15.346;2023-02-04T12:22:06;0.40;;;0.30;;
35897;SDS011;21997;47.118;15.346;2023-02-04T12:24:31;0.57;;;0.40;;
35897;SDS011;21997;47.118;15.346;2023-02-04T12:26:57;0.30;;;0.30;;
35897;SDS011;21997;47.118;15.346;2023-02-04T12:29:22;0.40;;;0.33;;
35897;SDS011;21997;47.118;15.346;2023-02-04T12:31:47;0.90;;;0.50;;
35897;SDS011;21997;47.118;15.346;2023-02-04T12:34:13;0.30;;;0.30;;
35897;SDS011;21997;47.118;15.346;2023-02-04T12:36:40;2.00;;;0.30;;
35897;SDS011;21997;47.118;15.346;2023-02-04T12:39:06;0.20;;;0.20;;
35897;SDS011;21997;47.118;15.346;2023-02-04T12:41:31;0.40;;;0.40;;
35897;SDS011;21997;47.118;15.346;2023-02-04T12:43:56;0.83;;;0.23;;
35897;SDS011;21997;47.118;15.346;2023-02-04T12:46:22;0.87;;;0.57;;
35897;SDS011;21997;47.118;15.346;2023-02-04T12:48:47;0.60;;;0.40;;
35897;SDS011;21997;47.118;15.346;2023-02-04T12:51:13;0.73;;;0.40;;
35897;SDS011;21997;47.118;15.346;2023-02-04T12:53:38;0.60;;;0.30;;
35897;SDS011;21997;47.118;15.346;2023-02-04T12:56:03;3.60;;;1.63;;
35897;SDS011;21997;47.118;15.346;2023-02-04T12:58:29;4.97;;;2.80;;
35897;SDS011;21997;47.118;15.346;2023-02-04T13:00:55;1.57;;;0.80;;
35897;SDS011;21997;47.118;15.346;2023-02-04T13:03:20;1.13;;;0.40;;
35897;SDS011;21997;47.118;15.346;2023-02-04T13:05:47;0.60;;;0.40;;
35897;SDS011;21997;47.118;15.346;2023-02-04T13:08:13;1.03;;;0.40;;
35897;SDS011;21997;47.118;15.346;2023-02-04T13:10:38;0.40;;;0.40;;
35897;SDS011;21997;47.118;15.346;2023-02-04T13:13:03;1.00;;;0.53;;
35897;SDS011;21997;47.118;15.346;2023-02-04T13:15:29;1.30;;;0.60;;
35897;SDS011;21997;47.118;15.346;2023-02-04T13:17:54;0.97;;;0.83;;
35897;SDS011;21997;47.118;15.346;2023-02-04T13:20:19;1.97;;;0.97;;
35897;SDS011;21997;47.118;15.346;2023-02-04T13:22:45;0.40;;;0.40;;
35897;SDS011;21997;47.118;15.346;2023-02-04T13:25:10;1.10;;;0.60;;
35897;SDS011;21997;47.118;15.346;2023-02-04T13:27:36;3.07;;;1.00;;
35897;SDS011;21997;47.118;15.346;2023-02-04T13:30:05;1.03;;;0.40;;
35897;SDS011;21997;47.118;15.346;2023-02-04T13:32:31;0.57;;;0.50;;
35897;SDS011;21997;47.118;15.346;2023-02-04T13:34:57;1.47;;;1.33;;
35897;SDS011;21997;47.118;15.346;2023-02-04T13:37:22;1.20;;;1.10;;
35897;SDS011;21997;47.118;15.346;2023-02-04T13:39:48;1.80;;;0.70;;
35897;SDS011;21997;47.118;15.346;2023-02-04T13:42:13;0.60;;;0.40;;
35897;SDS011;21997;47.118;15.346;2023-02-04T13:44:39;2.03;;;0.60;;
35897;SDS011;21997;47.118;15.346;2023-02-04T13:47:04;0.63;;;0.40;;
35897;SDS011;21997;47.118;15.346;2023-02-04T13:49:31;0.50;;;0.40;;
35897;SDS011;21997;47.118;15.346;2023-02-04T13:51:56;0.60;;;0.50;;
35897;SDS011;21997;47.118;15.346;2023-02-04T13:54:21;2.03;;;1.83;;
35897;SDS011;21997;47.118;15.346;2023-02-04T13:56:47;0.77;;;0.73;;
35897;SDS011;21997;47.118;15.346;2023-02-04T13:59:12;0.90;;;0.90;;
35897;SDS011;21997;47.118;15.346;2023-02-04T14:01:38;6.03;;;0.53;;
35897;SDS011;21997;47.118;15.346;2023-02-04T14:04:03;1.13;;;0.70;;
35897;SDS011;21997;47.118;15.346;2023-02-04T14:06:29;0.57;;;0.57;;
35897;SDS011;21997;47.118;15.346;2023-02-04T14:09:01;0.73;;;0.60;;
35897;SDS011;21997;47.118;15.346;2023-02-04T14:11:27;2.97;;;2.00;;
35897;SDS011;21997;47.118;15.346;2023-02-04T14:13:53;3.53;;;1.80;;
35897;SDS011;21997;47.118;15.346;2023-02-04T14:16:19;2.63;;;1.80;;
35897;SDS011;21997;47.118;15.346;2023-02-04T14:18:44;4.60;;;1.90;;
35897;SDS011;21997;47.118;15.346;2023-02-04T14:21:11;3.00;;;1.00;;
35897;SDS011;21997;47.118;15.346;2023-02-04T14:23:36;1.37;;;0.80;;
35897;SDS011;21997;47.118;15.346;2023-02-04T14:26:02;1.03;;;0.80;;
35897;SDS011;21997;47.118;15.346;2023-02-04T14:28:28;1.50;;;1.00;;
35897;SDS011;21997;47.118;15.346;2023-02-04T14:30:55;1.13;;;0.77;;
35897;SDS011;21997;47.118;15.346;2023-02-04T14:33:20;0.67;;;0.67;;
35897;SDS011;21997;47.118;15.346;2023-02-04T14:35:46;1.70;;;1.10;;
35897;SDS011;21997;47.118;15.346;2023-02-04T14:38:11;1.13;;;0.80;;
35897;SDS011;21997;47.118;15.346;2023-02-04T14:40:40;0.67;;;0.60;;
35897;SDS011;21997;47.118;15.346;2023-02-04T14:43:06;3.03;;;1.13;;
35897;SDS011;21997;47.118;15.346;2023-02-04T14:45:32;1.27;;;0.87;;